Portada
METAR-TAF:

METAR-TAF

Aeropuertos :

Sabzevar, Irán

latitud: 36-13N, longitud: 057-40E, altitud: 941 m

Observación

El informe se hizo hace 22 minutos, a las 11:00 UTC
Viento 8 kt del oeste-suroeste
Temperatura 27°C
Humedad 21%
Presión 1015 hPa
Visibilidad 10 km o más
Escasas nubes a una altura de 3000 ft, Cumulonimbus.

METAR: OIMS 161100Z 25008KT 9999 FEW030CB 27/03 Q1015

Hora: 15:52 (11:22 UTC)


TAF: falta

Observaciones y pronósticos meteorológicos de más de 4000 aeropuertos (mensajes METAR y TAF).

Los puntos amarillos y rojos representan las estaciones disponibles.

Ponga el ratón en el punto deseado para ver el nombre de la estación.

Haga clic para ver las observaciones y los pronósticos meteorológicos.

Para cambiar el mapa : haga clic en los botones verdes con una cruz de color negro para hacer un zoom, en el botón verde con un guión para alejar o en las flechas verdes para mapas adyacentes.


METAR-TAF: